Hauptseite
METAR-TAF:

METAR-TAF

Flughäfen :

Berbérati, Zentralafrikanische Republik

Breite: 04-15N, Länge: 015-48E, Höhe: 582 m

Beobachtung

Neuester Wetterbericht von vor 21 Stunden und 30 Minuten, um 08:00 UTC
Wind 4 kt aus West/Südwest
Temperatur 25°C
Luftfeuchtigkeit 89%
Luftdruck 1015 hPa
Sichtweite 10 km oder mehr
Durchbrochene Bewölkung in der Höhe von 1000 ft

METAR: FEFT 240800Z 24004KT 9999 BKN010 25/23 Q1015

Zeit: 06:30 (05:30 UTC)


TAF: fehlend

Wetterbeobachtungen und Prognosen von mehr als 4000 Flughäfen (METAR und TAF Bericht).

Die verfügbaren Stationen werden durch gelbe und rote Markierungen auf der Karte dargestellt.

Führen Sie die Maus auf sie, um den Namen der Station zu sehen.

Darauf klicken, um die Beobachtung von Wetterbeobachtungen und Prognosen zu sehen.

Um die Karte zu ändern : klicken Sie auf den grünen Tasten mit einem schwarzen Kreuz Zum Vergrößern, auf den grünen Button mit einem Gedankenstrich zu verkleinern, oder auf die grünen Pfeile für benachbarte Karten.


METAR-TAF: